Yellow Mule RAWS (NWS)

Elevation
9200ft
Aggregated by Synoptic Data
Date/Time Wind Direction Wind Speed knots Wind Gust knots RH % Accumulated Precip Inches Air Temp Fahrenheit
2024-06-24 17:04 SW 14 25 32 5.98 66
2024-06-24 16:04 SW 12 26 34 5.98 64
2024-06-24 15:04 S 13 25 34 5.98 64
2024-06-24 14:04 SSW 11 25 36 5.98 63
2024-06-24 13:04 SW 15 23 36 5.98 65
2024-06-24 12:04 SSW 14 23 38 5.98 64
2024-06-24 11:04 SSW 16 24 36 5.98 64
2024-06-24 10:04 SSW 18 29 33 5.98 64
2024-06-24 09:04 SSW 16 21 35 5.98 62
2024-06-24 08:04 SSW 11 23 37 5.98 60
2024-06-24 07:04 SSW 15 26 37 5.98 58
2024-06-24 06:04 SSW 15 23 34 5.98 57
2024-06-24 05:04 SSW 10 19 35 5.98 57
2024-06-24 04:04 SSW 11 17 35 5.98 57
2024-06-24 03:04 SSW 11 18 36 5.98 57
2024-06-24 02:04 SSW 11 22 35 5.98 57
2024-06-24 01:04 SSW 13 25 34 5.98 58
2024-06-24 00:04 SSW 16 24 32 5.98 60
2024-06-23 23:04 SW 14 19 30 5.98 60
2024-06-23 22:04 SSW 9 16 30 5.98 62
2024-06-23 21:04 SW 10 19 28 5.98 63
2024-06-23 20:04 S 7 26 25 5.98 69
2024-06-23 19:04 SSE 17 30 25 5.98 67
2024-06-23 18:04 S 18 28 24 5.98 68
2024-06-23 17:04 S 17 33 21 5.98 68
2024-06-23 16:04 S 15 38 24 5.98 71
2024-06-23 15:04 SSE 17 31 26 5.98 70
2024-06-23 14:04 S 17 28 26 5.98 69
2024-06-23 13:04 S 15 40 24 5.98 69
2024-06-23 12:04 S 16 34 22 5.98 69
2024-06-23 11:04 SSW 17 35 21 5.98 70
2024-06-23 10:04 SSW 13 28 20 5.98 70
2024-06-23 09:04 SSE 9 23 27 5.98 64
2024-06-23 08:04 SE 6 12 34 5.98 59
2024-06-23 07:04 SE 7 11 33 5.98 56
2024-06-23 06:04 SE 6 10 33 5.98 54
2024-06-23 05:04 SSE 5 8 33 5.98 54
2024-06-23 04:04 SSE 5 8 34 5.98 55
2024-06-23 03:04 SSE 5 13 36 5.98 55
2024-06-23 02:04 S 6 14 36 5.98 55
2024-06-23 01:04 SSW 10 13 31 5.98 58
2024-06-23 00:04 SSW 8 10 35 5.98 55
2024-06-22 23:04 S 6 15 38 5.98 55
2024-06-22 22:04 SSE 9 12 33 5.98 58
2024-06-22 21:04 SSE 9 20 31 5.98 60
2024-06-22 20:04 SSE 10 21 28 5.98 62
2024-06-22 19:04 S 8 23 26 5.98 66
2024-06-22 18:04 SSW 10 23 28 5.98 66
2024-06-22 17:04 SSW 14 23 29 5.98 65